Time;durP1;ratioP1;P1;durP2;ratioP2;P2;SDS_P1;SDS_P2;PMS_P1;PMS_P2;Temp;Humidity;BMP_temperature;BMP_pressure;BME280_temperature;BME280_humidity;BME280_pressure;Samples;Min_cycle;Max_cycle;Signal;HPM_P1;HPM_P2
2023/12/16 00:00:57;;;;;;;66.18;22.17;;;;;;;5.25;92.95;103065.25;5113661;28;20036;-71
2023/12/16 00:03:26;;;;;;;72.15;22.90;;;;;;;5.26;93.23;103054.44;5113374;28;20043;-72
2023/12/16 00:05:53;;;;;;;65.97;21.85;;;;;;;5.33;93.23;103052.44;5114550;28;20134;-71
2023/12/16 00:08:21;;;;;;;65.38;23.13;;;;;;;5.27;93.26;103047.22;5113600;28;20107;-69
2023/12/16 00:10:48;;;;;;;62.60;22.08;;;;;;;5.33;93.21;103041.69;5114594;28;20126;-73
2023/12/16 00:13:20;;;;;;;65.38;22.65;;;;;;;5.34;93.29;103037.19;5114358;28;20074;-73
2023/12/16 00:15:46;;;;;;;65.38;22.88;;;;;;;5.42;92.83;103035.13;5114099;28;20040;-72
2023/12/16 00:18:13;;;;;;;67.20;22.17;;;;;;;5.53;91.99;103033.91;5114493;28;20052;-73
2023/12/16 00:20:40;;;;;;;68.40;23.40;;;;;;;5.40;92.70;103036.97;5114160;28;20067;-73
2023/12/16 00:23:07;;;;;;;77.88;23.85;;;;;;;5.41;92.95;103044.13;5113977;28;20043;-73
2023/12/16 00:25:34;;;;;;;79.90;25.95;;;;;;;5.35;93.20;103042.50;5113997;28;20100;-71
2023/12/16 00:28:01;;;;;;;65.65;23.05;;;;;;;5.38;92.98;103038.84;5113958;28;20104;-71
2023/12/16 00:30:28;;;;;;;68.15;24.48;;;;;;;5.36;93.26;103040.72;5113625;28;20042;-71
2023/12/16 00:32:54;;;;;;;86.15;24.27;;;;;;;5.35;93.10;103045.22;5113727;28;20053;-71
2023/12/16 00:35:21;;;;;;;65.75;23.75;;;;;;;5.38;92.83;103044.22;5114361;28;20491;-71
2023/12/16 00:37:48;;;;;;;69.25;24.95;;;;;;;5.38;93.27;103046.91;5114874;28;20092;-72
2023/12/16 00:40:14;;;;;;;76.80;25.75;;;;;;;5.38;92.91;103038.84;5113625;28;20050;-71
2023/12/16 00:42:41;;;;;;;75.22;26.35;;;;;;;5.41;92.74;103038.75;5114403;28;20380;-71
2023/12/16 00:45:08;;;;;;;69.95;23.42;;;;;;;5.43;92.59;103036.91;5096400;28;20048;-71
2023/12/16 00:47:38;;;;;;;80.80;24.52;;;;;;;5.42;92.77;103033.34;5114437;28;20051;-70
2023/12/16 00:50:05;;;;;;;76.55;24.52;;;;;;;5.40;92.96;103028.91;5114456;28;20091;-71
2023/12/16 00:52:32;;;;;;;69.70;24.67;;;;;;;5.45;92.62;103024.28;5114456;28;20486;-71
2023/12/16 00:54:58;;;;;;;68.45;24.65;;;;;;;5.47;92.57;103033.19;5088990;28;20051;-71
2023/12/16 00:57:25;;;;;;;70.85;23.10;;;;;;;5.52;92.22;103032.13;5114262;28;20123;-71
2023/12/16 00:59:52;;;;;;;74.68;23.25;;;;;;;5.50;91.94;103042.03;5114276;28;20062;-71
2023/12/16 01:02:18;;;;;;;74.78;24.45;;;;;;;5.46;91.98;103045.75;5114480;28;20096;-72
2023/12/16 01:04:45;;;;;;;78.93;23.88;;;;;;;5.44;92.24;103044.06;5114162;28;20050;-70
2023/12/16 01:07:11;;;;;;;75.72;24.80;;;;;;;5.45;92.39;103044.00;5115181;28;20063;-72
2023/12/16 01:09:38;;;;;;;67.90;23.02;;;;;;;5.52;91.99;103047.41;5114430;28;20043;-73
2023/12/16 01:12:06;;;;;;;67.13;22.20;;;;;;;5.42;92.22;103056.66;5114480;28;20105;-73
2023/12/16 01:14:32;;;;;;;76.63;22.42;;;;;;;5.38;92.68;103057.69;5096869;28;20139;-73
2023/12/16 01:16:59;;;;;;;64.00;23.35;;;;;;;5.38;92.71;103053.19;5114493;28;20047;-72
2023/12/16 01:19:26;;;;;;;76.35;21.85;;;;;;;5.38;92.47;103058.56;5113975;28;20050;-72
2023/12/16 01:21:53;;;;;;;60.67;21.38;;;;;;;5.35;92.78;103057.78;5114305;28;20047;-71
2023/12/16 01:24:21;;;;;;;67.68;21.33;;;;;;;5.26;93.13;103051.72;5114583;28;20043;-73
2023/12/16 01:26:48;;;;;;;60.92;21.70;;;;;;;5.34;92.74;103059.59;5113953;28;20070;-72
2023/12/16 01:29:15;;;;;;;77.15;22.55;;;;;;;5.28;92.99;103049.88;5113772;28;20047;-72
2023/12/16 01:31:41;;;;;;;76.43;21.52;;;;;;;5.41;92.34;103045.00;5113776;28;20043;-72
2023/12/16 01:34:08;;;;;;;63.72;20.85;;;;;;;5.38;92.83;103044.22;5113686;28;20051;-72
2023/12/16 01:36:35;;;;;;;62.08;21.10;;;;;;;5.34;92.68;103056.03;5113574;28;20063;-72
2023/12/16 01:39:02;;;;;;;60.83;20.08;;;;;;;5.40;92.49;103048.63;5113349;28;20729;-72
2023/12/16 01:41:29;;;;;;;62.05;20.73;;;;;;;5.39;92.62;103064.81;5114086;28;20040;-72
2023/12/16 01:43:55;;;;;;;57.08;19.35;;;;;;;5.28;93.05;103055.25;5114767;28;20453;-71
2023/12/16 01:46:22;;;;;;;69.45;20.42;;;;;;;5.31;93.12;103066.84;5116046;28;20046;-72
2023/12/16 01:48:49;;;;;;;60.60;20.23;;;;;;;5.45;92.06;103056.59;5116824;28;20080;-73
2023/12/16 01:51:17;;;;;;;79.57;20.83;;;;;;;5.41;92.29;103060.28;5116662;28;20047;-71
2023/12/16 01:53:43;;;;;;;66.65;20.88;;;;;;;5.43;92.56;103066.53;5116723;28;20048;-71
2023/12/16 01:56:10;;;;;;;68.93;21.20;;;;;;;5.52;91.87;103068.94;5116428;28;20052;-72
2023/12/16 01:58:38;;;;;;;71.60;19.92;;;;;;;5.40;92.38;103074.66;5118397;28;20040;-73
2023/12/16 02:01:05;;;;;;;61.55;19.38;;;;;;;5.45;92.32;103076.31;5119499;28;20056;-72
2023/12/16 02:03:32;;;;;;;65.00;18.25;;;;;;;5.32;92.79;103071.31;5120186;28;20468;-72
2023/12/16 02:09:40;;;;;;;57.63;18.02;;;;;;;5.38;92.64;103087.28;5117519;28;20156;-72
2023/12/16 02:12:07;;;;;;;51.35;19.55;;;;;;;5.49;92.22;103083.34;5117088;28;20055;-71
2023/12/16 02:14:40;;;;;;;62.67;19.40;;;;;;;5.46;92.44;103090.66;5100426;28;20043;-72
2023/12/16 02:17:06;;;;;;;58.80;19.35;;;;;;;5.53;91.84;103087.72;5098063;28;20071;-71
2023/12/16 02:19:33;;;;;;;72.32;20.38;;;;;;;5.62;91.44;103083.00;5116464;28;20054;-71
2023/12/16 02:21:59;;;;;;;58.65;18.08;;;;;;;5.66;90.97;103088.25;5118189;27;20039;-70
2023/12/16 02:24:28;;;;;;;55.60;19.42;;;;;;;5.47;91.95;103070.88;5119255;28;20035;-71
2023/12/16 02:26:55;;;;;;;64.30;18.27;;;;;;;5.52;91.86;103066.25;5119393;28;20051;-70
2023/12/16 02:29:22;;;;;;;66.40;20.33;;;;;;;5.58;91.33;103063.34;5119979;28;20070;-71
2023/12/16 02:31:48;;;;;;;58.65;19.02;;;;;;;5.57;91.47;103057.09;5120914;28;20069;-71
2023/12/16 02:34:16;;;;;;;56.28;18.80;;;;;;;5.54;91.82;103062.56;5120706;28;20044;-70
2023/12/16 02:36:43;;;;;;;68.25;20.30;;;;;;;5.47;92.36;103065.50;5101866;28;20051;-71
2023/12/16 02:39:10;;;;;;;71.55;21.73;;;;;;;5.49;92.42;103066.31;5120771;28;20051;-71
2023/12/16 02:41:41;;;;;;;66.85;21.02;;;;;;;5.57;91.38;103067.84;5120074;28;20039;-71
2023/12/16 02:44:07;;;;;;;66.63;21.48;;;;;;;5.44;91.83;103077.22;5120450;28;20510;-71
2023/12/16 02:46:34;;;;;;;68.78;21.88;;;;;;;5.38;92.59;103084.59;5119509;28;20101;-71
2023/12/16 02:49:00;;;;;;;62.65;23.77;;;;;;;5.49;92.07;103077.09;5119666;28;20077;-71
2023/12/16 02:51:29;;;;;;;60.53;22.17;;;;;;;5.50;92.10;103071.66;5119068;28;20083;-70
2023/12/16 02:53:56;;;;;;;80.40;22.30;;;;;;;5.57;91.84;103083.13;5097129;28;20044;-70
2023/12/16 02:56:22;;;;;;;67.60;23.88;;;;;;;5.61;91.81;103068.66;5098458;28;20047;-71
2023/12/16 02:58:50;;;;;;;64.13;23.20;;;;;;;5.57;91.84;103066.97;5099745;28;20074;-71
2023/12/16 03:01:16;;;;;;;72.47;24.30;;;;;;;5.57;92.05;103066.97;5097054;28;20047;-73
2023/12/16 03:03:43;;;;;;;63.25;23.02;;;;;;;5.58;91.97;103068.75;5098871;28;20550;-72
2023/12/16 03:06:09;;;;;;;78.15;23.77;;;;;;;5.60;91.72;103066.88;5096899;28;20076;-72
2023/12/16 03:08:36;;;;;;;60.53;22.85;;;;;;;5.50;92.21;103070.78;5097962;28;20040;-72
2023/12/16 03:11:04;;;;;;;66.47;23.52;;;;;;;5.60;91.86;103077.66;5098449;28;20048;-72
2023/12/16 03:13:31;;;;;;;71.20;24.98;;;;;;;5.60;91.80;103079.47;5097264;28;20438;-71
2023/12/16 03:15:57;;;;;;;69.90;25.17;;;;;;;5.64;91.66;103073.06;5098143;28;20044;-72
2023/12/16 03:18:24;;;;;;;62.88;23.67;;;;;;;5.63;91.68;103082.09;5093375;28;20589;-71
2023/12/16 03:20:52;;;;;;;77.50;25.95;;;;;;;5.68;91.51;103077.44;5092598;28;20487;-71
2023/12/16 03:23:21;;;;;;;84.70;27.52;;;;;;;5.69;91.42;103088.16;5092304;28;20109;-71
2023/12/16 03:25:47;;;;;;;78.63;27.58;;;;;;;5.71;91.23;103094.38;5091372;28;20048;-71
2023/12/16 03:28:14;;;;;;;79.45;29.38;;;;;;;5.68;91.52;103090.88;5091578;28;20040;-71
2023/12/16 03:30:40;;;;;;;73.40;27.77;;;;;;;5.65;92.26;103096.38;5091271;28;20050;-71
2023/12/16 03:33:08;;;;;;;76.80;27.50;;;;;;;5.67;92.03;103095.38;5089517;28;20134;-71
2023/12/16 03:35:35;;;;;;;76.63;26.70;;;;;;;5.63;92.40;103109.88;5091304;28;20051;-71
2023/12/16 03:38:02;;;;;;;67.60;28.98;;;;;;;5.75;91.93;103109.50;5090529;28;20105;-71
2023/12/16 03:40:29;;;;;;;72.25;27.45;;;;;;;5.75;91.53;103122.97;5091222;28;20048;-71
2023/12/16 03:42:57;;;;;;;87.47;29.05;;;;;;;5.75;91.35;103116.72;5091447;28;20507;-71
2023/12/16 03:45:24;;;;;;;85.10;27.63;;;;;;;5.75;91.74;103112.22;5091056;28;20515;-72
2023/12/16 03:47:51;;;;;;;79.50;29.55;;;;;;;5.61;92.16;103106.38;5091514;28;20051;-71
2023/12/16 03:50:18;;;;;;;79.97;28.02;;;;;;;5.75;91.79;103114.03;5091125;28;20035;-71
2023/12/16 03:52:45;;;;;;;77.93;28.63;;;;;;;5.72;91.42;103115.00;5090099;28;20101;-71
2023/12/16 03:55:12;;;;;;;79.15;28.38;;;;;;;5.77;91.58;103110.34;5111086;28;20047;-70
2023/12/16 03:57:39;;;;;;;71.70;27.45;;;;;;;5.79;91.21;103100.44;5110425;28;20050;-71
2023/12/16 04:00:08;;;;;;;66.35;26.88;;;;;;;5.81;91.27;103095.88;5111238;28;20039;-71
2023/12/16 04:02:35;;;;;;;76.97;27.40;;;;;;;5.81;90.92;103093.19;5110879;28;20048;-71
2023/12/16 04:05:01;;;;;;;78.55;29.70;;;;;;;5.88;90.71;103096.56;5110907;28;20079;-70
2023/12/16 04:07:28;;;;;;;73.18;27.10;;;;;;;5.67;91.58;103100.78;5110937;28;20048;-69
2023/12/16 04:09:56;;;;;;;73.68;28.70;;;;;;;5.75;90.92;103100.56;5110985;28;20048;-69
2023/12/16 04:12:22;;;;;;;82.13;28.23;;;;;;;5.58;91.51;103101.03;5110674;28;20051;-69
2023/12/16 04:14:49;;;;;;;75.55;27.80;;;;;;;5.68;91.46;103107.91;5111434;28;20048;-70
2023/12/16 04:17:15;;;;;;;80.88;27.55;;;;;;;5.74;91.19;103106.88;5110114;28;20059;-70
2023/12/16 04:19:52;;;;;;;83.40;27.20;;;;;;;5.65;91.34;103097.25;5109979;27;20503;-70
2023/12/16 04:22:21;;;;;;;85.15;29.65;;;;;;;5.66;91.40;103093.63;5111388;28;20131;-70
2023/12/16 04:24:50;;;;;;;68.85;26.15;;;;;;;5.76;90.41;103099.63;5110572;28;20182;-70
2023/12/16 04:27:17;;;;;;;77.18;26.98;;;;;;;5.76;90.80;103105.00;5110193;28;20515;-70
2023/12/16 04:29:43;;;;;;;78.95;27.92;;;;;;;5.72;90.66;103104.22;5110347;28;20107;-70
2023/12/16 04:32:10;;;;;;;68.00;26.85;;;;;;;5.80;90.31;103101.31;5109754;27;20040;-70
2023/12/16 04:34:36;;;;;;;64.25;25.27;;;;;;;5.72;90.57;103098.84;5109691;28;20100;-70
2023/12/16 04:37:03;;;;;;;79.25;26.52;;;;;;;5.58;91.10;103101.94;5110771;28;20063;-70
2023/12/16 04:39:29;;;;;;;66.35;26.48;;;;;;;5.62;91.57;103102.75;5110670;28;20130;-70
2023/12/16 04:41:56;;;;;;;76.97;27.10;;;;;;;5.65;90.73;103101.75;5110653;28;20040;-69
2023/12/16 04:44:23;;;;;;;82.72;28.02;;;;;;;5.53;91.50;103103.00;5110960;28;20437;-69
2023/12/16 04:46:49;;;;;;;75.20;27.27;;;;;;;5.49;91.97;103106.69;5110723;28;20043;-70
2023/12/16 04:49:16;;;;;;;75.30;29.42;;;;;;;5.61;91.50;103106.38;5110272;28;20039;-69
2023/12/16 04:51:42;;;;;;;65.55;27.27;;;;;;;5.60;91.01;103093.81;5109699;28;20491;-70
2023/12/16 04:54:09;;;;;;;83.97;27.80;;;;;;;5.62;90.84;103097.34;5110553;28;20055;-70
2023/12/16 04:56:35;;;;;;;77.50;27.92;;;;;;;5.65;90.66;103096.38;5110751;28;20043;-70
2023/12/16 04:59:02;;;;;;;69.57;26.90;;;;;;;5.58;90.89;103103.75;5110856;28;20077;-69
2023/12/16 05:01:29;;;;;;;73.80;27.52;;;;;;;5.55;91.18;103106.53;5110304;28;20044;-70
2023/12/16 05:03:55;;;;;;;61.08;26.02;;;;;;;5.61;90.97;103106.38;5109969;28;20416;-70
2023/12/16 05:06:23;;;;;;;74.05;26.77;;;;;;;5.64;90.48;103110.78;5110745;28;20470;-70
2023/12/16 05:08:49;;;;;;;65.95;25.55;;;;;;;5.64;90.43;103108.94;5110718;28;20048;-70
2023/12/16 05:11:16;;;;;;;79.13;26.52;;;;;;;5.52;90.74;103103.94;5110282;28;20104;-70
2023/12/16 05:13:43;;;;;;;72.07;25.85;;;;;;;5.45;90.83;103110.41;5109824;28;20052;-70
2023/12/16 05:16:10;;;;;;;60.40;24.55;;;;;;;5.33;91.06;103111.66;5109652;28;20055;-70
2023/12/16 05:18:36;;;;;;;62.97;23.02;;;;;;;5.44;91.15;103108.66;5110277;28;20065;-70
2023/12/16 05:21:03;;;;;;;64.88;24.15;;;;;;;5.42;90.92;103099.72;5110196;28;20082;-70
2023/12/16 05:23:30;;;;;;;57.78;23.77;;;;;;;5.35;91.10;103096.34;5110477;28;20043;-70
2023/12/16 05:25:56;;;;;;;64.32;22.63;;;;;;;5.39;90.63;103094.44;5109851;28;20067;-70
2023/12/16 05:28:23;;;;;;;67.68;24.63;;;;;;;5.28;91.53;103103.69;5111816;28;20127;-70
2023/12/16 05:30:49;;;;;;;63.83;23.70;;;;;;;5.11;91.89;103111.34;5112088;28;20059;-69
2023/12/16 05:33:16;;;;;;;75.32;23.98;;;;;;;5.19;91.56;103103.94;5111765;28;20101;-70
2023/12/16 05:35:43;;;;;;;59.58;23.27;;;;;;;5.10;91.64;103104.19;5111542;28;20051;-71
2023/12/16 05:38:09;;;;;;;64.63;22.95;;;;;;;5.10;91.85;103114.97;5111619;28;20495;-70
2023/12/16 05:40:36;;;;;;;70.13;23.83;;;;;;;5.08;92.27;103121.31;5111318;28;20044;-70
2023/12/16 05:43:03;;;;;;;59.05;22.73;;;;;;;4.97;92.29;103145.81;5110922;28;20130;-70
2023/12/16 05:45:29;;;;;;;65.35;23.98;;;;;;;5.04;92.23;103142.00;5112577;28;20044;-70
2023/12/16 05:47:56;;;;;;;63.70;23.38;;;;;;;5.12;91.68;103134.63;5112007;28;20047;-70
2023/12/16 05:50:23;;;;;;;64.40;20.88;;;;;;;5.29;90.70;103128.78;5112282;28;20437;-70
2023/12/16 05:52:49;;;;;;;61.60;21.25;;;;;;;5.29;90.70;103134.19;5092947;28;20101;-72
2023/12/16 05:55:16;;;;;;;60.97;20.85;;;;;;;5.11;91.33;103140.94;5105416;28;20124;-71
2023/12/16 05:57:43;;;;;;;61.35;20.85;;;;;;;5.16;91.57;103136.31;5115333;28;20096;-71
2023/12/16 06:00:10;;;;;;;62.92;21.25;;;;;;;5.17;91.34;103131.81;5116105;28;20518;-70
2023/12/16 06:02:36;;;;;;;54.92;20.50;;;;;;;5.20;90.74;103138.00;5115155;28;20042;-71
2023/12/16 06:05:04;;;;;;;65.13;19.80;;;;;;;5.22;90.91;103138.81;5115486;28;20054;-71
2023/12/16 06:07:31;;;;;;;56.10;19.17;;;;;;;5.12;91.83;103140.00;5115210;28;20039;-71
2023/12/16 06:09:58;;;;;;;53.92;18.85;;;;;;;5.27;90.72;103144.97;5115428;28;20046;-71
2023/12/16 06:12:24;;;;;;;55.17;17.92;;;;;;;5.34;90.49;103152.91;5115357;28;20426;-71
2023/12/16 06:14:51;;;;;;;56.67;18.35;;;;;;;5.35;90.11;103160.03;5116032;28;20055;-70
2023/12/16 06:17:18;;;;;;;55.40;17.15;;;;;;;5.36;90.28;103160.00;5115376;28;20048;-70
2023/12/16 06:19:45;;;;;;;58.83;18.75;;;;;;;5.40;89.88;103161.66;5114998;28;20043;-70
2023/12/16 06:22:12;;;;;;;54.10;16.65;;;;;;;5.38;90.52;103157.25;5114137;28;20138;-71
2023/12/16 06:24:39;;;;;;;48.08;17.30;;;;;;;5.43;89.62;103160.72;5114380;28;20067;-71
2023/12/16 06:27:06;;;;;;;55.35;18.55;;;;;;;5.56;88.94;103157.63;5114594;28;20392;-71
2023/12/16 06:29:32;;;;;;;56.53;17.38;;;;;;;5.57;88.41;103155.81;5114764;28;20047;-71
2023/12/16 06:31:59;;;;;;;44.28;16.38;;;;;;;5.52;89.02;103147.88;5113858;28;20089;-70
2023/12/16 06:34:26;;;;;;;41.42;15.52;;;;;;;5.55;88.61;103138.84;5113865;28;20044;-70
2023/12/16 06:36:52;;;;;;;47.00;16.70;;;;;;;5.59;88.18;103145.88;5114443;28;20472;-71
2023/12/16 06:39:20;;;;;;;49.95;16.83;;;;;;;5.56;88.62;103133.41;5115010;28;20069;-71
2023/12/16 06:41:47;;;;;;;53.67;17.88;;;;;;;5.51;88.58;103111.13;5097128;28;20044;-71
2023/12/16 06:44:14;;;;;;;50.40;14.25;;;;;;;5.64;87.79;103116.16;5114930;28;20063;-72
2023/12/16 06:46:40;;;;;;;55.00;15.68;;;;;;;5.47;88.28;103119.31;5114621;28;20392;-72
2023/12/16 06:49:07;;;;;;;50.22;14.57;;;;;;;5.59;88.13;103129.72;5114599;28;20086;-70
2023/12/16 06:51:34;;;;;;;50.17;16.23;;;;;;;5.61;87.89;103137.75;5115224;28;20496;-71
2023/12/16 06:54:00;;;;;;;55.05;15.02;;;;;;;5.64;87.69;103143.06;5107432;28;20055;-71
2023/12/16 06:56:27;;;;;;;54.97;16.05;;;;;;;5.63;87.06;103152.97;5114955;28;20044;-72
2023/12/16 06:58:53;;;;;;;46.90;14.48;;;;;;;5.61;87.44;103153.91;5115218;28;20104;-70
2023/12/16 07:01:23;;;;;;;51.63;14.13;;;;;;;5.49;88.12;103152.47;5115126;28;20632;-71
2023/12/16 07:03:50;;;;;;;43.55;14.02;;;;;;;5.52;88.13;103147.00;5115391;28;20116;-71
2023/12/16 07:06:20;;;;;;;43.90;12.85;;;;;;;5.66;87.35;103162.75;5114043;28;20126;-72
2023/12/16 07:08:46;;;;;;;46.22;14.10;;;;;;;5.75;86.09;103168.75;5114234;28;20043;-72
2023/12/16 07:11:14;;;;;;;44.63;12.70;;;;;;;5.70;86.52;103159.94;5114679;28;20075;-71
2023/12/16 07:13:41;;;;;;;44.22;13.05;;;;;;;5.66;86.47;103158.25;5114634;28;20055;-71
2023/12/16 07:16:09;;;;;;;39.45;11.77;;;;;;;5.61;87.18;103165.59;5114542;28;20077;-71
2023/12/16 07:18:36;;;;;;;46.25;12.90;;;;;;;5.74;86.01;103161.63;5113996;28;20047;-71
2023/12/16 07:21:07;;;;;;;56.30;15.02;;;;;;;5.66;86.37;103162.75;5113205;28;20051;-71
2023/12/16 07:23:34;;;;;;;47.30;13.25;;;;;;;5.62;86.55;103161.97;5113347;28;20066;-71
2023/12/16 07:26:01;;;;;;;37.80;11.52;;;;;;;5.71;85.79;103155.44;5113311;28;20461;-71
2023/12/16 07:28:29;;;;;;;36.72;11.52;;;;;;;5.77;85.32;103145.34;5095180;28;20044;-71
2023/12/16 07:30:57;;;;;;;47.10;12.13;;;;;;;5.82;85.21;103153.31;5113546;28;20139;-71
2023/12/16 07:33:25;;;;;;;29.83;10.95;;;;;;;5.80;84.97;103139.91;5095545;28;20043;-71
2023/12/16 07:35:52;;;;;;;41.05;12.23;;;;;;;5.75;85.17;103139.13;5113861;28;20126;-71
2023/12/16 07:38:21;;;;;;;39.53;11.60;;;;;;;5.80;84.92;103134.50;5113350;28;20043;-71
2023/12/16 07:40:47;;;;;;;41.38;12.93;;;;;;;5.76;84.81;103154.38;5113520;28;20069;-71
2023/12/16 07:43:14;;;;;;;36.78;12.40;;;;;;;5.82;84.68;103147.94;5113171;28;21645;-71
2023/12/16 07:45:40;;;;;;;41.45;12.57;;;;;;;5.89;83.95;103143.22;5112475;28;20043;-70
2023/12/16 07:48:07;;;;;;;33.00;10.45;;;;;;;5.96;83.36;103147.50;5112820;28;20457;-71
2023/12/16 07:50:34;;;;;;;36.58;11.02;;;;;;;5.90;83.44;103159.38;5112125;28;20043;-71
2023/12/16 07:53:02;;;;;;;36.35;11.82;;;;;;;5.76;84.44;103159.75;5112224;28;20044;-74
2023/12/16 07:55:29;;;;;;;32.85;10.98;;;;;;;5.86;83.91;103163.06;5112868;28;20127;-70
2023/12/16 07:57:56;;;;;;;36.55;11.60;;;;;;;5.88;83.58;103163.00;5112868;28;20046;-70
2023/12/16 08:00:23;;;;;;;38.17;10.23;;;;;;;5.89;83.27;103170.16;5112801;28;20098;-71
2023/12/16 08:02:50;;;;;;;32.20;10.18;;;;;;;5.84;83.53;103173.88;5112606;28;20065;-71
2023/12/16 08:05:18;;;;;;;34.58;10.00;;;;;;;5.96;82.43;103172.63;5111396;28;20102;-71
2023/12/16 08:07:46;;;;;;;28.95;9.48;;;;;;;5.91;82.75;103176.41;5093568;28;20051;-72
2023/12/16 08:10:13;;;;;;;32.67;10.05;;;;;;;5.96;82.48;103171.75;5112054;28;20074;-71
2023/12/16 08:12:39;;;;;;;28.92;9.07;;;;;;;5.92;82.86;103178.16;5112770;28;20043;-71
2023/12/16 08:15:07;;;;;;;32.15;9.52;;;;;;;5.78;83.31;103190.19;5112911;28;20064;-72
2023/12/16 08:17:35;;;;;;;31.13;9.88;;;;;;;5.96;81.84;103193.31;5112914;27;20462;-71
2023/12/16 08:20:02;;;;;;;31.15;9.15;;;;;;;6.01;81.18;103183.28;5111409;28;20096;-72
2023/12/16 08:22:30;;;;;;;33.85;11.35;;;;;;;6.02;81.57;103176.97;5112057;28;20415;-70
2023/12/16 08:24:57;;;;;;;38.95;9.73;;;;;;;6.02;81.26;103185.03;5112836;28;20117;-71
2023/12/16 08:27:24;;;;;;;27.90;8.95;;;;;;;6.06;81.05;103190.28;5115786;28;20475;-69
2023/12/16 08:29:51;;;;;;;37.38;9.50;;;;;;;6.12;80.19;103183.84;5117490;28;20048;-72
2023/12/16 08:32:18;;;;;;;36.25;9.52;;;;;;;6.15;79.57;103189.13;5098209;28;20047;-72
2023/12/16 08:34:45;;;;;;;30.88;9.60;;;;;;;6.06;80.08;103187.59;5115020;28;20047;-72
2023/12/16 08:37:11;;;;;;;31.35;8.98;;;;;;;6.04;80.00;103181.38;5115716;28;20178;-72
2023/12/16 08:39:38;;;;;;;21.95;8.93;;;;;;;6.09;79.80;103183.94;5115004;28;20508;-72
2023/12/16 08:42:05;;;;;;;27.90;8.27;;;;;;;6.20;79.17;103175.53;5116696;28;20558;-68
2023/12/16 08:44:32;;;;;;;33.60;8.38;;;;;;;6.06;79.82;103178.63;5128156;28;20048;-68
2023/12/16 08:47:00;;;;;;;25.70;7.75;;;;;;;6.20;78.49;103181.81;5127507;28;20078;-68
2023/12/16 08:49:26;;;;;;;23.02;8.00;;;;;;;6.15;79.08;103181.03;5128062;28;20043;-67
2023/12/16 08:51:56;;;;;;;28.05;6.95;;;;;;;6.20;79.03;103176.41;5143954;27;20111;-69
2023/12/16 08:54:23;;;;;;;28.58;7.53;;;;;;;6.23;78.46;103175.44;5118304;28;20043;-68
2023/12/16 08:56:50;;;;;;;25.25;7.38;;;;;;;6.20;78.64;103176.41;5126148;28;20040;-67
2023/12/16 08:59:16;;;;;;;24.40;7.38;;;;;;;6.36;77.76;103175.00;5121997;28;20048;-72
2023/12/16 09:01:46;;;;;;;36.05;7.40;;;;;;;6.38;77.67;103170.44;5114500;28;20062;-71
2023/12/16 09:04:12;;;;;;;24.38;6.68;;;;;;;6.46;77.23;103174.72;5116814;28;20051;-71
2023/12/16 09:06:41;;;;;;;27.52;7.00;;;;;;;6.38;77.13;103181.22;5115179;28;20040;-71
2023/12/16 09:09:08;;;;;;;27.50;6.78;;;;;;;6.47;76.82;103189.97;5116147;28;20044;-71
2023/12/16 09:11:39;;;;;;;21.83;6.35;;;;;;;6.43;76.91;103168.47;5112733;28;20050;-70
2023/12/16 09:14:06;;;;;;;22.63;6.50;;;;;;;6.49;76.58;103163.84;5112157;28;20092;-70
2023/12/16 09:16:34;;;;;;;25.23;6.72;;;;;;;6.54;76.16;103148.38;5116345;28;20047;-67
2023/12/16 09:19:01;;;;;;;33.42;6.78;;;;;;;6.59;76.37;103154.50;5123983;28;20051;-67
2023/12/16 09:21:27;;;;;;;26.63;6.38;;;;;;;6.65;74.79;103159.72;5125060;28;20077;-68
2023/12/16 09:23:54;;;;;;;21.30;4.93;;;;;;;6.69;75.36;103150.56;5125311;28;20076;-67
2023/12/16 09:26:23;;;;;;;23.63;5.55;;;;;;;6.65;74.90;103163.28;5124213;28;20047;-66
2023/12/16 09:28:50;;;;;;;19.90;5.60;;;;;;;6.63;75.61;103153.47;5106612;28;20043;-67
2023/12/16 09:31:17;;;;;;;24.92;6.50;;;;;;;6.78;75.08;103157.50;5124942;27;20051;-66
2023/12/16 09:33:43;;;;;;;25.80;5.57;;;;;;;6.79;74.86;103156.56;5124778;28;20044;-69
2023/12/16 09:36:12;;;;;;;23.40;5.30;;;;;;;6.89;74.25;103150.78;5124985;28;20043;-68
2023/12/16 09:38:41;;;;;;;23.80;5.72;;;;;;;6.94;74.09;103143.44;5124393;28;20124;-68
2023/12/16 09:41:22;;;;;;;19.90;5.15;;;;;;;6.95;73.14;103144.31;5124734;28;20142;-68
2023/12/16 09:43:52;;;;;;;18.77;4.97;;;;;;;7.00;73.31;103148.63;5125006;28;20047;-68
2023/12/16 09:46:20;;;;;;;23.75;5.20;;;;;;;7.24;72.22;103149.56;5125250;28;20043;-68
2023/12/16 09:48:47;;;;;;;25.73;5.05;;;;;;;7.43;71.00;103147.13;5124593;28;20050;-68
2023/12/16 09:51:15;;;;;;;22.90;4.65;;;;;;;7.54;70.82;103155.72;5126630;28;20127;-68
2023/12/16 09:53:43;;;;;;;18.23;4.88;;;;;;;7.78;70.54;103164.75;5123735;28;20123;-68
2023/12/16 09:56:11;;;;;;;19.27;5.05;;;;;;;8.08;68.57;103167.22;5125312;28;20059;-68
2023/12/16 09:58:44;;;;;;;20.90;5.38;;;;;;;8.09;68.75;103169.88;5105685;28;20487;-67
2023/12/16 10:01:11;;;;;;;20.30;4.75;;;;;;;8.10;68.61;103173.44;5118365;28;20057;-70
2023/12/16 10:03:39;;;;;;;23.40;4.25;;;;;;;8.17;68.09;103171.41;5110103;28;20131;-70
2023/12/16 10:06:07;;;;;;;25.45;5.55;;;;;;;7.84;68.87;103167.25;5110358;28;20157;-70
2023/12/16 10:08:37;;;;;;;20.58;4.63;;;;;;;7.93;68.08;103147.06;5110789;28;20473;-69
2023/12/16 10:11:06;;;;;;;24.50;5.10;;;;;;;7.92;68.43;103142.59;5110420;28;20047;-69
2023/12/16 10:13:59;;;;;;;26.95;5.28;;;;;;;7.78;68.42;103129.63;5109631;28;20047;-68
2023/12/16 10:16:29;;;;;;;29.02;5.28;;;;;;;7.88;68.49;103135.56;5113351;28;20096;-70
2023/12/16 10:18:57;;;;;;;24.25;4.72;;;;;;;8.05;67.69;103126.81;5113080;28;20116;-71
2023/12/16 10:21:29;;;;;;;17.60;4.43;;;;;;;8.12;66.50;103115.69;5124570;28;20105;-71
2023/12/16 10:23:56;;;;;;;20.88;4.32;;;;;;;8.40;65.65;103103.78;5123621;28;20048;-70
2023/12/16 10:26:23;;;;;;;21.08;4.50;;;;;;;8.84;63.74;103106.41;5124733;28;20077;-67
2023/12/16 10:28:52;;;;;;;18.38;4.43;;;;;;;9.07;63.24;103100.91;5124449;28;20483;-67
2023/12/16 10:31:18;;;;;;;22.17;3.90;;;;;;;9.34;62.16;103100.66;5123549;28;20461;-67
2023/12/16 10:33:46;;;;;;;24.70;4.47;;;;;;;9.41;61.93;103102.13;5123202;28;20049;-66
2023/12/16 10:36:13;;;;;;;15.65;4.45;;;;;;;9.46;61.51;103105.53;5124584;28;20058;-67
2023/12/16 10:38:40;;;;;;;15.38;3.80;;;;;;;9.52;61.00;103114.25;5113206;28;20044;-71
2023/12/16 10:41:07;;;;;;;25.55;5.00;;;;;;;9.65;60.63;103108.28;5110470;28;20048;-71
2023/12/16 10:43:34;;;;;;;21.55;4.22;;;;;;;9.75;60.18;103102.34;5114641;28;20047;-71
2023/12/16 10:46:04;;;;;;;18.88;4.40;;;;;;;9.98;59.90;103109.41;5115109;28;20118;-72
2023/12/16 10:48:35;;;;;;;24.25;3.60;;;;;;;10.22;59.03;103101.91;5115025;28;20105;-72
2023/12/16 10:51:04;;;;;;;17.58;3.58;;;;;;;10.52;58.39;103098.63;5115269;28;20073;-71
2023/12/16 10:53:40;;;;;;;26.48;4.70;;;;;;;10.66;56.91;103098.84;5109528;28;20154;-72
2023/12/16 10:56:27;;;;;;;17.85;4.40;;;;;;;10.56;56.80;103098.41;5107550;28;20054;-73
2023/12/16 10:59:04;;;;;;;22.42;4.47;;;;;;;10.40;56.96;103092.88;5115581;28;20043;-70
2023/12/16 11:01:38;;;;;;;15.82;4.25;;;;;;;10.41;57.07;103091.03;5114970;28;20497;-71
2023/12/16 11:04:23;;;;;;;20.85;4.22;;;;;;;10.24;58.01;103090.97;5118510;27;20048;-71
2023/12/16 11:07:03;;;;;;;19.77;3.90;;;;;;;9.99;58.13;103086.75;5047859;28;20056;-71
2023/12/16 11:09:30;;;;;;;21.02;4.80;;;;;;;10.08;58.24;103080.03;5071478;28;20723;-72
2023/12/16 11:12:00;;;;;;;22.77;3.95;;;;;;;10.14;58.20;103074.28;5070782;28;20067;-71
2023/12/16 11:14:29;;;;;;;17.90;4.30;;;;;;;9.79;59.16;103065.13;5085701;28;20079;-70
2023/12/16 11:16:58;;;;;;;27.25;5.20;;;;;;;10.00;58.08;103061.41;5078922;28;20040;-70
2023/12/16 11:19:37;;;;;;;19.38;3.88;;;;;;;9.87;58.19;103064.75;5071645;28;20044;-73
2023/12/16 11:22:05;;;;;;;16.65;4.00;;;;;;;9.73;59.01;103069.03;5064764;28;20052;-71
2023/12/16 11:24:40;;;;;;;19.00;3.85;;;;;;;9.58;59.69;103064.31;5085213;28;20576;-71